Hovedside
METAR-TAF:

METAR-TAF

Lufthavner :

Sindal, Danmark

breddegrad: 57-30N, lengdegrad: 010-13E, høyde over havet: 28 m

Gjeldene værobservasjon

Denne rapporten ble laget for 13 timer og 15 minutter siden, klokken 12:20 UTC
Vind 9 kt fra Sør
Temperatur 10°C
Luftfuktighet 66%
Trykk 1029 hPa
Sikt 10 km eller mer
ingen skyer under 1500 m og ingen bygeskyer

METAR: EKSN 221220Z 19009KT CAVOK 10/04 Q1029

Tid: 02:35 (01:35 UTC)

Varsel

Denne rapporten ble laget for 16 timer og 33 minutter siden, klokken 09:02 UTC
Varsel gyldig fra 22. klokken 09 UTC til 22. klokken 15 UTC
Vind 5 kt fra Sør
Sikt 10 km eller mer
ingen skyer under 1500 m og ingen bygeskyer
Blir
fra 22. klokken 12 UTC til 22. klokken 15 UTC
Sikt: 4000 m
Brutte skyer i en høyde av 500 ft
dis

TAF: EKSN 220902Z 2209/2215 18005KT CAVOK BECMG 2212/2215 4000 BR BKN005

Værobservasjoner og værvarsel for over 4000 flyplasser (METAR- og TAF-rapporter).

Tilgjengelige stasjoner er representert av de røde og gule prikkene på kartet.

Hold musepekeren over prikken for å se navnet på stasjonen.

Klikk så for å se værobservasjoner og -varsler.

For å forandre kartet kan du klikke på den grønne knappen med svart kryss for å zoome inn, på den grønne knappen med strek for å zoome ut, eller på de grønne pilene for å se tilstøtende kart.


METAR-TAF: